Time;durP1;ratioP1;P1;durP2;ratioP2;P2;SDS_P1;SDS_P2;PMS_P1;PMS_P2;Temp;Humidity;BMP_temperature;BMP_pressure;BME280_temperature;BME280_humidity;BME280_pressure;Samples;Min_cycle;Max_cycle;Signal;HPM_P1;HPM_P2
2024/01/04 00:02:15;;;;;;;2.03;0.63;;;;;;;;;;5037941;28;20034;-79
2024/01/04 00:04:41;;;;;;;5.32;1.00;;;;;;;;;;5029894;28;20029;-79
2024/01/04 00:07:07;;;;;;;2.60;0.70;;;;;;;;;;5039083;28;20051;-80
2024/01/04 00:09:32;;;;;;;4.65;0.80;;;;;;;;;;5038130;28;20029;-81
2024/01/04 00:11:58;;;;;;;4.82;1.05;;;;;;;;;;5038631;28;20033;-81
2024/01/04 00:14:23;;;;;;;4.05;0.70;;;;;;;;;;5024291;28;20472;-79
2024/01/04 00:16:48;;;;;;;4.03;0.70;;;;;;;;;;5045449;28;20143;-79
2024/01/04 00:19:17;;;;;;;4.45;0.80;;;;;;;;;;5023578;28;20033;-81
2024/01/04 00:21:48;;;;;;;6.47;0.90;;;;;;;;;;5017919;28;20040;-80
2024/01/04 00:24:13;;;;;;;3.55;0.80;;;;;;;;;;5023546;28;20090;-79
2024/01/04 00:26:39;;;;;;;2.30;0.73;;;;;;;;;;5020993;28;20435;-80
2024/01/04 00:29:08;;;;;;;2.33;0.90;;;;;;;;;;5016471;28;20045;-78
2024/01/04 00:31:33;;;;;;;2.70;0.70;;;;;;;;;;4992043;28;20041;-80
2024/01/04 00:34:02;;;;;;;4.10;1.02;;;;;;;;;;5040059;28;20388;-81
2024/01/04 00:36:27;;;;;;;5.20;0.68;;;;;;;;;;5024682;28;20464;-80
2024/01/04 00:38:52;;;;;;;2.80;0.65;;;;;;;;;;5031599;28;20112;-82
2024/01/04 00:41:18;;;;;;;3.22;0.75;;;;;;;;;;5020757;28;20064;-80
2024/01/04 00:43:43;;;;;;;3.28;0.52;;;;;;;;;;5021874;28;20029;-80
2024/01/04 00:46:09;;;;;;;2.55;0.75;;;;;;;;;;5035482;28;20450;-81
2024/01/04 00:48:34;;;;;;;2.50;0.60;;;;;;;;;;5045451;28;20036;-80
2024/01/04 00:51:02;;;;;;;2.17;0.60;;;;;;;;;;5020912;28;20366;-80
2024/01/04 00:53:28;;;;;;;2.40;0.60;;;;;;;;;;5026869;28;20048;-79
2024/01/04 00:55:53;;;;;;;2.22;0.60;;;;;;;;;;5010472;28;20409;-81
2024/01/04 00:58:18;;;;;;;3.30;0.77;;;;;;;;;;5019278;28;20047;-80
2024/01/04 01:00:44;;;;;;;3.97;0.70;;;;;;;;;;5028242;28;20040;-81
2024/01/04 01:03:12;;;;;;;3.83;0.80;;;;;;;;;;5027047;28;20043;-80
2024/01/04 01:05:38;;;;;;;3.60;0.70;;;;;;;;;;5037406;28;20030;-82
2024/01/04 01:08:04;;;;;;;3.42;0.63;;;;;;;;;;5037047;28;20026;-79
2024/01/04 01:10:31;;;;;;;3.78;0.68;;;;;;;;;;5024581;28;20037;-80
2024/01/04 01:12:57;;;;;;;2.40;0.60;;;;;;;;;;5009994;28;20104;-80
2024/01/04 01:15:22;;;;;;;2.28;0.60;;;;;;;;;;5028394;28;20400;-84
2024/01/04 01:17:47;;;;;;;2.75;0.68;;;;;;;;;;5035056;28;20029;-81
2024/01/04 01:20:13;;;;;;;4.30;0.73;;;;;;;;;;5022199;28;20033;-80
2024/01/04 01:22:38;;;;;;;3.15;0.65;;;;;;;;;;5022303;28;20029;-81
2024/01/04 01:25:04;;;;;;;3.30;0.70;;;;;;;;;;5037111;28;20033;-80
2024/01/04 01:27:29;;;;;;;3.50;0.60;;;;;;;;;;5037910;28;20110;-82
2024/01/04 01:29:55;;;;;;;2.78;0.43;;;;;;;;;;5026286;28;20076;-80
2024/01/04 01:32:20;;;;;;;4.15;0.55;;;;;;;;;;5023421;28;20543;-80
2024/01/04 01:34:45;;;;;;;2.75;0.60;;;;;;;;;;5021585;28;21021;-80
2024/01/04 01:37:11;;;;;;;2.70;0.80;;;;;;;;;;5033791;28;20048;-80
2024/01/04 01:39:36;;;;;;;1.50;0.50;;;;;;;;;;5023407;28;20036;-80
2024/01/04 01:42:02;;;;;;;1.95;0.60;;;;;;;;;;5023711;28;20511;-80
2024/01/04 01:44:27;;;;;;;1.60;0.40;;;;;;;;;;5026496;28;20045;-80
2024/01/04 01:46:53;;;;;;;1.23;0.40;;;;;;;;;;5021786;28;20037;-80
2024/01/04 01:49:18;;;;;;;3.63;0.47;;;;;;;;;;5028368;28;20031;-81
2024/01/04 01:51:43;;;;;;;1.80;0.50;;;;;;;;;;5033917;28;20102;-80
2024/01/04 01:54:09;;;;;;;1.70;0.47;;;;;;;;;;5036141;28;20035;-80
2024/01/04 01:56:38;;;;;;;3.20;0.55;;;;;;;;;;5023406;28;20044;-79
2024/01/04 01:59:04;;;;;;;2.10;0.50;;;;;;;;;;5034244;28;20029;-80
2024/01/04 02:01:32;;;;;;;1.55;0.40;;;;;;;;;;5034814;28;20064;-80
2024/01/04 02:04:00;;;;;;;4.70;0.60;;;;;;;;;;5025075;28;20068;-80
2024/01/04 02:06:26;;;;;;;2.85;0.60;;;;;;;;;;5030218;28;20037;-81
2024/01/04 02:08:51;;;;;;;2.28;0.55;;;;;;;;;;5020654;28;20029;-81
2024/01/04 02:11:17;;;;;;;1.95;0.50;;;;;;;;;;5021203;28;20070;-80
2024/01/04 02:13:43;;;;;;;3.13;0.50;;;;;;;;;;5020039;28;20090;-78
2024/01/04 02:16:08;;;;;;;2.38;0.45;;;;;;;;;;5008362;28;20678;-82
2024/01/04 02:18:34;;;;;;;5.03;1.75;;;;;;;;;;5033587;28;20068;-81
2024/01/04 02:21:19;;;;;;;3.42;1.48;;;;;;;;;;5035987;28;20056;-80
2024/01/04 02:23:45;;;;;;;1.95;0.30;;;;;;;;;;5033229;28;20555;-79
2024/01/04 02:26:16;;;;;;;2.22;0.40;;;;;;;;;;5034730;28;20128;-80
2024/01/04 02:28:50;;;;;;;1.63;0.47;;;;;;;;;;5009736;28;20475;-81
2024/01/04 02:31:15;;;;;;;1.50;0.50;;;;;;;;;;5018706;28;20033;-81
2024/01/04 02:33:41;;;;;;;2.17;0.40;;;;;;;;;;5008122;28;20116;-80
2024/01/04 02:36:06;;;;;;;1.95;0.50;;;;;;;;;;5020384;28;20509;-78
2024/01/04 02:38:32;;;;;;;1.73;0.50;;;;;;;;;;5032559;28;20037;-79
2024/01/04 02:40:57;;;;;;;3.65;0.52;;;;;;;;;;5016804;28;20033;-81
2024/01/04 02:43:22;;;;;;;3.17;0.47;;;;;;;;;;5032589;28;20029;-79
2024/01/04 02:45:48;;;;;;;1.40;0.40;;;;;;;;;;5018307;28;20846;-80
2024/01/04 02:48:13;;;;;;;1.85;0.40;;;;;;;;;;5024165;28;20037;-79
2024/01/04 02:50:38;;;;;;;3.17;0.57;;;;;;;;;;5034381;28;20446;-81
2024/01/04 02:53:04;;;;;;;1.25;0.30;;;;;;;;;;5035320;28;20033;-80
2024/01/04 02:55:29;;;;;;;3.25;0.40;;;;;;;;;;5020974;28;20116;-79
2024/01/04 02:57:55;;;;;;;2.53;0.50;;;;;;;;;;5032207;28;20396;-80
2024/01/04 03:00:21;;;;;;;2.45;0.47;;;;;;;;;;5034047;28;20507;-79
2024/01/04 03:02:46;;;;;;;2.85;0.50;;;;;;;;;;5007159;28;20030;-80
2024/01/04 03:05:11;;;;;;;2.40;0.57;;;;;;;;;;5017302;28;20102;-80
2024/01/04 03:07:37;;;;;;;2.88;0.40;;;;;;;;;;5008146;28;20034;-81
2024/01/04 03:10:06;;;;;;;2.40;0.43;;;;;;;;;;5031645;28;20066;-82
2024/01/04 03:12:37;;;;;;;2.95;0.50;;;;;;;;;;5024218;28;20497;-80
2024/01/04 03:15:09;;;;;;;2.08;0.63;;;;;;;;;;5017597;28;20103;-80
2024/01/04 03:17:34;;;;;;;2.10;0.52;;;;;;;;;;5026083;28;20045;-80
2024/01/04 03:20:00;;;;;;;2.20;0.50;;;;;;;;;;5038377;28;20040;-82
2024/01/04 03:22:28;;;;;;;2.45;0.60;;;;;;;;;;5024507;28;20492;-81
2024/01/04 03:24:53;;;;;;;2.10;0.50;;;;;;;;;;5024327;28;20036;-83
2024/01/04 03:27:18;;;;;;;2.55;0.90;;;;;;;;;;5018827;28;20531;-81
2024/01/04 03:29:44;;;;;;;1.95;0.57;;;;;;;;;;5036526;28;20385;-81
2024/01/04 03:32:12;;;;;;;2.17;0.68;;;;;;;;;;5037041;28;20057;-80
2024/01/04 03:34:37;;;;;;;5.22;0.60;;;;;;;;;;5032265;28;20038;-80
2024/01/04 03:37:05;;;;;;;4.13;0.50;;;;;;;;;;5031501;28;20060;-80
2024/01/04 03:39:30;;;;;;;2.42;0.57;;;;;;;;;;5017970;28;20034;-80
2024/01/04 03:41:56;;;;;;;3.63;0.60;;;;;;;;;;5034764;28;20385;-81
2024/01/04 03:44:24;;;;;;;3.25;0.70;;;;;;;;;;5019198;28;20120;-80
2024/01/04 03:46:50;;;;;;;2.33;0.60;;;;;;;;;;5016652;28;20121;-80
2024/01/04 03:49:21;;;;;;;3.00;0.70;;;;;;;;;;4980456;28;20128;-79
2024/01/04 03:51:47;;;;;;;2.45;0.55;;;;;;;;;;5033749;28;20033;-79
2024/01/04 03:54:12;;;;;;;3.58;0.60;;;;;;;;;;5018189;28;21466;-81
2024/01/04 03:56:43;;;;;;;3.75;0.55;;;;;;;;;;5024087;28;20045;-79
2024/01/04 03:59:09;;;;;;;1.40;0.52;;;;;;;;;;5019837;28;20043;-80
2024/01/04 04:01:42;;;;;;;1.95;0.55;;;;;;;;;;5029124;28;20393;-79
2024/01/04 04:04:07;;;;;;;3.50;0.60;;;;;;;;;;5036772;28;20040;-80
2024/01/04 04:06:33;;;;;;;2.60;0.63;;;;;;;;;;5016222;28;20567;-81
2024/01/04 04:09:18;;;;;;;2.13;0.60;;;;;;;;;;5033260;28;20041;-79
2024/01/04 04:11:53;;;;;;;2.05;0.50;;;;;;;;;;4962094;28;20523;-79
2024/01/04 04:14:18;;;;;;;2.22;0.50;;;;;;;;;;4955345;28;20042;-79
2024/01/04 04:16:46;;;;;;;2.45;0.60;;;;;;;;;;4962407;28;20135;-80
2024/01/04 04:19:12;;;;;;;2.00;0.50;;;;;;;;;;4961407;28;20053;-80
2024/01/04 04:21:40;;;;;;;3.15;0.52;;;;;;;;;;4966916;28;20398;-80
2024/01/04 04:24:09;;;;;;;2.15;0.57;;;;;;;;;;4930434;28;20422;-77
2024/01/04 04:26:35;;;;;;;1.80;0.60;;;;;;;;;;4974538;28;20030;-81
2024/01/04 04:29:01;;;;;;;3.03;0.60;;;;;;;;;;4943532;28;20049;-80
2024/01/04 04:31:27;;;;;;;1.40;0.55;;;;;;;;;;4976779;28;20109;-79
2024/01/04 04:33:53;;;;;;;1.67;0.63;;;;;;;;;;4951129;28;20038;-81
2024/01/04 04:36:18;;;;;;;2.97;0.80;;;;;;;;;;4941847;28;20039;-79
2024/01/04 04:38:44;;;;;;;3.28;0.80;;;;;;;;;;4976433;28;20050;-80
2024/01/04 04:41:10;;;;;;;2.50;0.60;;;;;;;;;;4954300;28;20038;-80
2024/01/04 04:43:35;;;;;;;1.85;0.80;;;;;;;;;;4975278;28;20495;-79
2024/01/04 04:46:02;;;;;;;2.33;0.80;;;;;;;;;;4941717;28;20481;-79
2024/01/04 04:48:27;;;;;;;1.87;0.60;;;;;;;;;;4981810;28;20038;-79
2024/01/04 04:50:53;;;;;;;3.20;0.80;;;;;;;;;;5037400;28;20079;-81
2024/01/04 04:53:20;;;;;;;2.70;0.75;;;;;;;;;;5038175;28;20040;-80
2024/01/04 04:55:45;;;;;;;3.08;1.00;;;;;;;;;;5036085;28;20068;-81
2024/01/04 04:58:11;;;;;;;3.03;0.80;;;;;;;;;;5039228;28;20029;-79
2024/01/04 05:00:38;;;;;;;2.72;0.70;;;;;;;;;;5036958;28;20040;-79
2024/01/04 05:03:04;;;;;;;;;;;;;;;;;;5031337;28;20033;-79
2024/01/04 05:05:29;;;;;;;4.53;0.80;;;;;;;;;;5037099;28;20390;-79
2024/01/04 05:07:55;;;;;;;3.78;0.85;;;;;;;;;;5016125;28;20032;-78
2024/01/04 05:10:20;;;;;;;2.88;0.98;;;;;;;;;;5038846;28;20041;-77
2024/01/04 05:12:46;;;;;;;3.13;1.05;;;;;;;;;;5010365;28;20029;-79
2024/01/04 05:15:11;;;;;;;1.98;0.80;;;;;;;;;;5027056;28;20396;-77
2024/01/04 05:17:37;;;;;;;2.50;0.90;;;;;;;;;;5039228;28;20440;-79
2024/01/04 05:20:04;;;;;;;1.77;0.77;;;;;;;;;;5034110;28;20034;-78
2024/01/04 05:22:30;;;;;;;1.52;0.73;;;;;;;;;;5042838;28;20535;-79
2024/01/04 05:24:55;;;;;;;3.22;1.02;;;;;;;;;;5035143;28;20408;-79
2024/01/04 05:27:21;;;;;;;3.80;1.20;;;;;;;;;;5038266;28;20033;-78
2024/01/04 05:29:47;;;;;;;2.88;1.17;;;;;;;;;;5031006;28;20036;-79
2024/01/04 05:32:15;;;;;;;4.47;1.35;;;;;;;;;;5023870;28;20044;-79
2024/01/04 05:34:46;;;;;;;3.97;1.30;;;;;;;;;;5005172;28;20504;-78
2024/01/04 05:37:17;;;;;;;5.32;1.00;;;;;;;;;;5025118;28;20053;-79
2024/01/04 05:39:43;;;;;;;6.15;1.17;;;;;;;;;;5021874;28;20053;-78
2024/01/04 05:42:08;;;;;;;5.00;1.23;;;;;;;;;;5018735;28;20057;-81
2024/01/04 05:44:34;;;;;;;3.50;1.10;;;;;;;;;;5034034;28;20453;-80
2024/01/04 05:46:59;;;;;;;5.43;1.38;;;;;;;;;;5034699;28;20041;-79
2024/01/04 05:49:24;;;;;;;3.10;1.10;;;;;;;;;;5019846;28;20084;-80
2024/01/04 05:51:52;;;;;;;4.20;1.45;;;;;;;;;;5027818;28;20049;-80
2024/01/04 05:54:20;;;;;;;3.33;1.38;;;;;;;;;;5012520;28;20056;-80
2024/01/04 05:56:48;;;;;;;3.10;1.40;;;;;;;;;;5020698;28;20045;-80
2024/01/04 05:59:14;;;;;;;3.33;1.48;;;;;;;;;;5036026;28;20862;-79
2024/01/04 06:01:39;;;;;;;3.60;1.45;;;;;;;;;;5032025;28;20112;-79
2024/01/04 06:04:05;;;;;;;2.80;1.40;;;;;;;;;;5025241;28;20107;-80
2024/01/04 06:06:31;;;;;;;4.70;1.60;;;;;;;;;;4996085;28;20053;-81
2024/01/04 06:08:56;;;;;;;4.18;1.25;;;;;;;;;;5023553;28;20116;-79
2024/01/04 06:11:22;;;;;;;5.90;1.95;;;;;;;;;;5038409;28;20117;-81
2024/01/04 06:13:48;;;;;;;3.40;1.60;;;;;;;;;;5037319;28;20507;-79
2024/01/04 06:16:13;;;;;;;3.97;1.70;;;;;;;;;;5012469;28;20088;-79
2024/01/04 06:18:39;;;;;;;4.13;1.70;;;;;;;;;;5023420;28;20147;-80
2024/01/04 06:21:07;;;;;;;4.03;1.80;;;;;;;;;;5032325;28;20053;-79
2024/01/04 06:23:32;;;;;;;3.58;1.90;;;;;;;;;;5042071;28;20037;-80
2024/01/04 06:25:58;;;;;;;3.20;1.40;;;;;;;;;;5021250;28;20124;-79
2024/01/04 06:28:24;;;;;;;3.20;1.50;;;;;;;;;;5034629;28;20041;-82
2024/01/04 06:30:49;;;;;;;4.38;1.55;;;;;;;;;;5020403;28;20519;-79
2024/01/04 06:33:15;;;;;;;3.10;1.40;;;;;;;;;;5033443;28;20033;-78
2024/01/04 06:35:41;;;;;;;4.45;1.90;;;;;;;;;;5034184;28;20545;-78
2024/01/04 06:38:09;;;;;;;6.78;1.75;;;;;;;;;;5034504;28;20029;-78
2024/01/04 06:40:40;;;;;;;3.42;1.80;;;;;;;;;;5020469;28;20401;-79
2024/01/04 06:43:09;;;;;;;5.55;1.50;;;;;;;;;;5031011;28;20042;-78
2024/01/04 06:45:37;;;;;;;6.53;1.95;;;;;;;;;;5033012;28;20103;-79
2024/01/04 06:48:03;;;;;;;5.63;1.77;;;;;;;;;;5018217;28;20041;-79
2024/01/04 06:50:29;;;;;;;3.78;1.40;;;;;;;;;;5011892;28;20043;-79
2024/01/04 06:52:55;;;;;;;3.92;1.38;;;;;;;;;;5017001;28;20029;-77
2024/01/04 06:55:20;;;;;;;2.15;0.88;;;;;;;;;;5036338;28;20572;-77
2024/01/04 06:57:49;;;;;;;2.92;1.00;;;;;;;;;;5018278;28;20511;-76
2024/01/04 07:00:15;;;;;;;2.75;1.10;;;;;;;;;;4994966;28;20120;-76
2024/01/04 07:02:40;;;;;;;2.75;0.90;;;;;;;;;;5027772;28;20036;-77
2024/01/04 07:05:06;;;;;;;2.72;1.00;;;;;;;;;;5031106;28;20033;-77
2024/01/04 07:07:36;;;;;;;2.55;1.00;;;;;;;;;;5031227;28;20389;-76
2024/01/04 07:10:03;;;;;;;2.67;0.90;;;;;;;;;;5035268;28;20485;-77
2024/01/04 07:12:29;;;;;;;2.13;0.77;;;;;;;;;;5007053;28;20026;-78
2024/01/04 07:14:55;;;;;;;1.67;0.70;;;;;;;;;;5014262;28;20404;-77
2024/01/04 07:17:22;;;;;;;1.65;0.60;;;;;;;;;;5023306;28;20033;-76
2024/01/04 07:19:47;;;;;;;1.58;0.70;;;;;;;;;;5033168;28;20033;-78
2024/01/04 07:22:15;;;;;;;1.42;0.50;;;;;;;;;;5016081;28;20486;-78
2024/01/04 07:24:41;;;;;;;1.38;0.50;;;;;;;;;;5028709;28;20044;-78
2024/01/04 07:27:14;;;;;;;1.10;0.40;;;;;;;;;;5008320;28;20049;-78
2024/01/04 07:29:46;;;;;;;1.65;0.40;;;;;;;;;;5015539;28;20049;-79
2024/01/04 07:32:15;;;;;;;0.98;0.40;;;;;;;;;;5018296;28;20040;-78
2024/01/04 07:34:41;;;;;;;1.45;0.50;;;;;;;;;;5016801;28;20392;-78
2024/01/04 07:37:07;;;;;;;1.48;0.50;;;;;;;;;;5029131;28;20037;-78
2024/01/04 07:39:32;;;;;;;1.67;0.50;;;;;;;;;;5030876;28;20401;-79
2024/01/04 07:41:58;;;;;;;1.98;0.50;;;;;;;;;;5016395;28;20123;-80
2024/01/04 07:44:24;;;;;;;2.95;0.55;;;;;;;;;;5019879;28;20040;-81
2024/01/04 07:46:54;;;;;;;1.83;0.55;;;;;;;;;;5018653;28;20531;-81
2024/01/04 07:49:19;;;;;;;1.83;0.60;;;;;;;;;;5010417;28;20093;-80
2024/01/04 07:51:45;;;;;;;2.08;0.60;;;;;;;;;;5021203;28;20037;-78
2024/01/04 07:54:10;;;;;;;2.22;0.52;;;;;;;;;;5041374;28;20081;-78
2024/01/04 07:56:37;;;;;;;3.72;0.57;;;;;;;;;;5012013;28;20048;-78
2024/01/04 07:59:03;;;;;;;1.38;0.43;;;;;;;;;;5028240;28;20507;-80
2024/01/04 08:01:31;;;;;;;1.02;0.40;;;;;;;;;;5011733;28;20061;-79
2024/01/04 08:03:59;;;;;;;2.15;0.57;;;;;;;;;;5005676;28;20041;-79
2024/01/04 08:06:26;;;;;;;1.35;0.50;;;;;;;;;;5020682;28;20472;-78
2024/01/04 08:08:55;;;;;;;1.33;0.50;;;;;;;;;;5019738;28;20037;-79
2024/01/04 08:11:23;;;;;;;2.10;0.60;;;;;;;;;;5033368;28;20436;-79
2024/01/04 08:13:52;;;;;;;2.08;0.50;;;;;;;;;;5022404;28;20040;-78
2024/01/04 08:16:18;;;;;;;3.45;0.73;;;;;;;;;;5029577;28;20037;-79
2024/01/04 08:18:47;;;;;;;2.40;0.70;;;;;;;;;;4997156;28;20042;-78
2024/01/04 08:21:12;;;;;;;1.70;0.70;;;;;;;;;;5012965;28;20048;-79
2024/01/04 08:23:41;;;;;;;2.70;0.80;;;;;;;;;;5017721;28;20037;-78
2024/01/04 08:26:06;;;;;;;2.20;0.80;;;;;;;;;;5021010;28;20029;-79
2024/01/04 08:28:31;;;;;;;1.70;0.65;;;;;;;;;;5028263;28;20040;-78
2024/01/04 08:30:57;;;;;;;3.15;0.95;;;;;;;;;;5040465;28;20114;-79
2024/01/04 08:33:22;;;;;;;2.20;0.60;;;;;;;;;;5034981;28;20037;-79
2024/01/04 08:35:48;;;;;;;3.03;0.70;;;;;;;;;;5039752;28;20743;-80
2024/01/04 08:38:13;;;;;;;2.58;0.73;;;;;;;;;;5034351;28;20938;-78
2024/01/04 08:40:39;;;;;;;1.90;0.60;;;;;;;;;;5034380;28;20042;-78
2024/01/04 08:43:06;;;;;;;1.55;0.60;;;;;;;;;;5031849;28;20504;-79
2024/01/04 08:45:32;;;;;;;3.63;0.80;;;;;;;;;;5039505;28;20037;-78
2024/01/04 08:47:58;;;;;;;1.58;0.73;;;;;;;;;;5026077;28;20041;-81
2024/01/04 08:50:23;;;;;;;1.83;0.68;;;;;;;;;;5024316;28;20555;-79
2024/01/04 08:52:52;;;;;;;2.85;0.68;;;;;;;;;;5034531;28;20075;-79
2024/01/04 08:55:20;;;;;;;3.90;0.75;;;;;;;;;;5031055;28;20136;-80
2024/01/04 08:57:46;;;;;;;1.92;0.77;;;;;;;;;;5013145;28;20064;-79
2024/01/04 09:00:17;;;;;;;1.25;0.60;;;;;;;;;;5018053;28;20464;-78
2024/01/04 09:02:46;;;;;;;1.05;0.55;;;;;;;;;;5027274;28;20029;-78
2024/01/04 09:05:12;;;;;;;1.23;0.50;;;;;;;;;;5036625;28;20153;-79
2024/01/04 09:07:37;;;;;;;1.95;0.50;;;;;;;;;;5013129;28;20138;-79
2024/01/04 09:10:04;;;;;;;2.08;0.50;;;;;;;;;;5036815;28;20037;-80
2024/01/04 09:12:30;;;;;;;1.30;0.40;;;;;;;;;;5016611;28;20096;-80
2024/01/04 09:14:56;;;;;;;0.77;0.40;;;;;;;;;;5024418;28;20041;-80
2024/01/04 09:17:21;;;;;;;1.02;0.45;;;;;;;;;;5034902;28;20037;-80
2024/01/04 09:19:47;;;;;;;1.08;0.50;;;;;;;;;;5023688;28;20498;-80
2024/01/04 09:22:18;;;;;;;1.38;0.45;;;;;;;;;;5034178;28;20633;-78
2024/01/04 09:24:44;;;;;;;2.08;0.60;;;;;;;;;;5023008;28;20395;-79
2024/01/04 09:27:11;;;;;;;1.42;0.60;;;;;;;;;;5021782;28;20042;-78
2024/01/04 09:29:37;;;;;;;;;;;;;;;;;;5038077;28;20374;-78
2024/01/04 09:32:08;;;;;;;2.35;0.80;;;;;;;;;;5035871;28;19924;-78
2024/01/04 09:34:34;;;;;;;1.27;0.50;;;;;;;;;;5019065;28;20033;-80
2024/01/04 09:37:02;;;;;;;3.22;1.08;;;;;;;;;;5018582;28;20036;-80
2024/01/04 09:39:27;;;;;;;1.77;0.80;;;;;;;;;;5037045;28;20037;-82
2024/01/04 09:42:02;;;;;;;2.72;0.60;;;;;;;;;;5037310;28;20082;-81
2024/01/04 09:44:29;;;;;;;1.25;0.60;;;;;;;;;;5034034;28;20029;-77
2024/01/04 09:47:15;;;;;;;2.33;0.88;;;;;;;;;;5007575;28;20519;-78
2024/01/04 09:49:41;;;;;;;1.15;0.60;;;;;;;;;;5027641;28;20452;-78
2024/01/04 09:52:10;;;;;;;1.17;0.60;;;;;;;;;;5021391;28;20064;-81
2024/01/04 09:54:37;;;;;;;1.77;0.60;;;;;;;;;;5023011;28;20076;-78
2024/01/04 09:57:07;;;;;;;1.52;0.70;;;;;;;;;;5035512;28;20767;-80
2024/01/04 09:59:32;;;;;;;2.42;0.52;;;;;;;;;;5015569;28;20553;-82
2024/01/04 10:02:00;;;;;;;1.75;0.57;;;;;;;;;;5023879;28;20120;-80
2024/01/04 10:04:29;;;;;;;1.73;0.60;;;;;;;;;;5014620;28;20095;-79
2024/01/04 10:06:57;;;;;;;2.10;0.68;;;;;;;;;;4982915;28;20034;-80
2024/01/04 10:09:40;;;;;;;2.67;0.50;;;;;;;;;;5013425;28;20041;-80
2024/01/04 10:12:11;;;;;;;2.03;0.70;;;;;;;;;;5022442;28;20049;-81
2024/01/04 10:14:37;;;;;;;2.25;0.50;;;;;;;;;;5037589;28;20448;-78
2024/01/04 10:17:02;;;;;;;1.42;0.60;;;;;;;;;;5028207;28;20029;-80
2024/01/04 10:19:29;;;;;;;1.20;0.60;;;;;;;;;;5027639;28;20400;-80
2024/01/04 10:22:02;;;;;;;3.50;0.65;;;;;;;;;;5019509;28;20420;-78
2024/01/04 10:24:29;;;;;;;1.27;0.60;;;;;;;;;;5033883;28;20041;-81
2024/01/04 10:26:57;;;;;;;2.40;0.70;;;;;;;;;;5023889;28;20117;-82
2024/01/04 10:29:29;;;;;;;1.77;0.43;;;;;;;;;;5021300;28;20068;-79
2024/01/04 10:32:13;;;;;;;1.48;0.60;;;;;;;;;;5041636;28;20033;-82
2024/01/04 10:34:40;;;;;;;1.75;0.50;;;;;;;;;;5026684;28;20025;-81
2024/01/04 10:37:14;;;;;;;1.15;0.50;;;;;;;;;;5030847;28;20057;-81
2024/01/04 10:39:45;;;;;;;2.05;0.60;;;;;;;;;;5036333;28;20488;-79
2024/01/04 10:42:16;;;;;;;1.48;0.52;;;;;;;;;;5030629;28;20037;-79
2024/01/04 10:44:45;;;;;;;3.08;0.43;;;;;;;;;;5025323;28;20040;-80
2024/01/04 10:47:13;;;;;;;1.02;0.30;;;;;;;;;;5041567;28;20041;-81
2024/01/04 10:49:40;;;;;;;;;;;;;;;;;;5036320;28;20443;-80
2024/01/04 10:52:13;;;;;;;1.85;0.55;;;;;;;;;;5032652;28;19963;-79
2024/01/04 10:54:41;;;;;;;1.60;0.55;;;;;;;;;;5016288;28;20517;-81
2024/01/04 10:57:07;;;;;;;1.58;0.70;;;;;;;;;;5030192;28;20090;-80
2024/01/04 10:59:33;;;;;;;1.70;0.50;;;;;;;;;;5024749;28;20028;-81
2024/01/04 11:01:59;;;;;;;1.38;0.45;;;;;;;;;;5001688;28;20523;-79
2024/01/04 11:04:26;;;;;;;1.42;0.40;;;;;;;;;;5019975;28;20037;-80
2024/01/04 11:06:54;;;;;;;1.60;0.40;;;;;;;;;;5025274;28;20516;-78
2024/01/04 11:09:23;;;;;;;2.22;0.70;;;;;;;;;;5008175;28;20456;-79
2024/01/04 11:11:54;;;;;;;1.63;0.60;;;;;;;;;;5007388;28;20037;-80
2024/01/04 11:14:24;;;;;;;1.42;0.70;;;;;;;;;;5021188;28;20032;-78
2024/01/04 11:17:09;;;;;;;1.48;0.40;;;;;;;;;;5024955;28;20091;-79
2024/01/04 11:20:05;;;;;;;0.80;0.40;;;;;;;;;;5051363;28;20488;-79
2024/01/04 11:22:45;;;;;;;1.50;0.60;;;;;;;;;;5025781;28;20034;-78
2024/01/04 11:25:28;;;;;;;0.82;0.40;;;;;;;;;;5028942;28;20043;-78
2024/01/04 11:27:54;;;;;;;0.95;0.40;;;;;;;;;;5025601;28;20053;-78
2024/01/04 11:30:19;;;;;;;2.25;0.50;;;;;;;;;;5027846;28;20105;-79
2024/01/04 11:32:45;;;;;;;1.48;0.43;;;;;;;;;;5011904;28;20116;-79
2024/01/04 11:35:11;;;;;;;0.65;0.40;;;;;;;;;;5022904;28;20124;-80
2024/01/04 11:37:36;;;;;;;0.88;0.50;;;;;;;;;;5029052;28;20046;-80
2024/01/04 11:40:07;;;;;;;1.70;0.50;;;;;;;;;;5006354;28;20038;-78
2024/01/04 11:42:41;;;;;;;1.80;0.50;;;;;;;;;;5034186;28;20034;-78
2024/01/04 11:45:17;;;;;;;0.82;0.40;;;;;;;;;;5029372;28;20476;-79
2024/01/04 11:47:45;;;;;;;1.13;0.40;;;;;;;;;;5024465;28;20029;-78
2024/01/04 11:50:25;;;;;;;0.80;0.40;;;;;;;;;;5025760;28;20041;-77
2024/01/04 11:52:51;;;;;;;1.25;0.50;;;;;;;;;;5031982;28;20150;-80
2024/01/04 11:55:28;;;;;;;1.50;0.60;;;;;;;;;;5024013;28;20048;-77
2024/01/04 11:58:04;;;;;;;1.08;0.50;;;;;;;;;;5014264;28;20036;-80
2024/01/04 12:00:33;;;;;;;1.38;0.50;;;;;;;;;;5028559;28;20037;-79
2024/01/04 12:03:00;;;;;;;0.95;0.40;;;;;;;;;;5015494;28;20091;-77
2024/01/04 12:05:30;;;;;;;1.00;0.43;;;;;;;;;;5013739;28;20103;-79
2024/01/04 12:07:56;;;;;;;1.50;0.63;;;;;;;;;;5020920;28;20511;-79
2024/01/04 12:10:21;;;;;;;1.48;0.40;;;;;;;;;;5016018;28;20037;-79
2024/01/04 12:12:52;;;;;;;0.63;0.40;;;;;;;;;;5017847;28;20098;-78
2024/01/04 12:15:20;;;;;;;0.98;0.47;;;;;;;;;;5017288;28;20053;-79
2024/01/04 12:17:46;;;;;;;1.15;0.60;;;;;;;;;;5039446;28;20087;-78
2024/01/04 12:20:12;;;;;;;1.40;0.60;;;;;;;;;;5038620;28;20451;-79
2024/01/04 12:22:39;;;;;;;1.20;0.50;;;;;;;;;;5030782;28;20047;-79
2024/01/04 12:25:06;;;;;;;1.05;0.50;;;;;;;;;;5039286;28;20029;-80
2024/01/04 12:27:38;;;;;;;1.00;0.50;;;;;;;;;;5034978;28;20477;-78
2024/01/04 12:30:09;;;;;;;1.65;0.60;;;;;;;;;;5028307;28;20036;-78
2024/01/04 12:32:42;;;;;;;1.00;0.50;;;;;;;;;;5028267;28;20040;-78
2024/01/04 12:35:15;;;;;;;1.02;0.50;;;;;;;;;;5029645;28;20440;-77
2024/01/04 12:37:41;;;;;;;2.35;0.50;;;;;;;;;;5018511;28;20471;-78
2024/01/04 12:40:12;;;;;;;1.10;0.50;;;;;;;;;;5027850;28;20112;-79
2024/01/04 12:42:38;;;;;;;1.48;0.60;;;;;;;;;;5026423;28;20037;-78
2024/01/04 12:45:08;;;;;;;0.95;0.50;;;;;;;;;;5021677;28;20029;-79
2024/01/04 12:47:34;;;;;;;2.00;0.60;;;;;;;;;;5037586;28;20330;-78
2024/01/04 12:50:02;;;;;;;0.93;0.50;;;;;;;;;;5024751;28;20064;-79
2024/01/04 12:52:28;;;;;;;2.05;0.65;;;;;;;;;;5016450;28;20067;-79
2024/01/04 12:54:54;;;;;;;1.40;0.70;;;;;;;;;;5032208;28;20131;-78
2024/01/04 12:57:19;;;;;;;1.38;0.77;;;;;;;;;;5006536;28;20799;-78
2024/01/04 12:59:49;;;;;;;2.22;0.55;;;;;;;;;;5022966;28;20170;-78
2024/01/04 13:02:18;;;;;;;1.02;0.47;;;;;;;;;;5029324;28;20041;-78
2024/01/04 13:04:43;;;;;;;2.65;0.63;;;;;;;;;;5006997;28;20037;-79
2024/01/04 13:07:09;;;;;;;1.58;0.65;;;;;;;;;;5003771;28;20531;-77
2024/01/04 13:09:35;;;;;;;1.83;0.80;;;;;;;;;;4994394;28;20086;-78
2024/01/04 13:12:02;;;;;;;1.55;0.80;;;;;;;;;;5025024;28;20111;-78
2024/01/04 13:14:29;;;;;;;1.42;0.60;;;;;;;;;;5036738;28;20036;-78
2024/01/04 13:16:55;;;;;;;1.90;0.73;;;;;;;;;;5028564;28;20045;-77
2024/01/04 13:19:21;;;;;;;2.13;0.73;;;;;;;;;;5020704;28;20514;-77
2024/01/04 13:21:46;;;;;;;1.58;0.60;;;;;;;;;;5017383;28;20042;-78
2024/01/04 13:24:12;;;;;;;2.10;0.70;;;;;;;;;;5026507;28;20374;-79
2024/01/04 13:26:39;;;;;;;2.70;0.70;;;;;;;;;;4978103;28;20038;-77
2024/01/04 13:29:05;;;;;;;1.93;0.80;;;;;;;;;;5023835;28;20295;-79
2024/01/04 13:31:30;;;;;;;1.50;0.70;;;;;;;;;;4996544;28;20122;-78
2024/01/04 13:33:56;;;;;;;2.08;0.80;;;;;;;;;;5009155;28;20040;-78
2024/01/04 13:36:25;;;;;;;1.50;0.80;;;;;;;;;;5021504;28;20175;-78
2024/01/04 13:38:53;;;;;;;1.27;0.60;;;;;;;;;;5045266;28;20068;-76
2024/01/04 13:41:20;;;;;;;1.08;0.55;;;;;;;;;;5023294;28;20388;-77
2024/01/04 13:43:53;;;;;;;1.73;0.60;;;;;;;;;;5042432;28;20369;-78
2024/01/04 13:46:18;;;;;;;1.50;0.57;;;;;;;;;;5026705;28;20026;-80
2024/01/04 13:48:44;;;;;;;0.98;0.50;;;;;;;;;;5010901;28;20040;-78
2024/01/04 13:51:09;;;;;;;2.15;0.70;;;;;;;;;;5021219;28;20053;-80
2024/01/04 13:53:36;;;;;;;1.50;0.43;;;;;;;;;;5023043;28;20504;-80
2024/01/04 13:56:02;;;;;;;1.55;0.57;;;;;;;;;;5007835;28;20034;-77
2024/01/04 13:58:28;;;;;;;0.90;0.45;;;;;;;;;;5022575;28;20087;-78
2024/01/04 14:00:53;;;;;;;1.10;0.50;;;;;;;;;;5019311;28;20030;-79
2024/01/04 14:03:18;;;;;;;1.95;0.45;;;;;;;;;;5014274;28;20040;-78
2024/01/04 14:05:46;;;;;;;1.30;0.38;;;;;;;;;;5020618;28;20089;-79
2024/01/04 14:08:12;;;;;;;;;;;;;;;;;;5025853;28;20152;-78
2024/01/04 14:10:46;;;;;;;1.33;0.60;;;;;;;;;;5024428;28;20007;-78
2024/01/04 14:13:12;;;;;;;1.15;0.50;;;;;;;;;;5003635;28;20076;-78
2024/01/04 14:15:38;;;;;;;1.35;0.57;;;;;;;;;;5034463;28;20061;-78
2024/01/04 14:18:03;;;;;;;1.25;0.50;;;;;;;;;;5011273;28;20075;-81
2024/01/04 14:20:29;;;;;;;0.70;0.30;;;;;;;;;;5017920;28;20067;-79
2024/01/04 14:22:55;;;;;;;0.60;0.30;;;;;;;;;;5021720;28;20068;-80
2024/01/04 14:25:21;;;;;;;1.13;0.57;;;;;;;;;;5012445;28;20479;-79
2024/01/04 14:27:46;;;;;;;1.55;0.60;;;;;;;;;;4988747;28;20064;-78
2024/01/04 14:30:14;;;;;;;1.30;0.50;;;;;;;;;;5026053;28;20471;-79
2024/01/04 14:32:39;;;;;;;1.77;0.70;;;;;;;;;;5029316;28;20381;-77
2024/01/04 14:35:05;;;;;;;1.23;0.60;;;;;;;;;;5033970;28;20056;-80
2024/01/04 14:37:31;;;;;;;1.42;0.60;;;;;;;;;;5031600;28;20123;-78
2024/01/04 14:39:57;;;;;;;1.25;0.60;;;;;;;;;;5020557;28;20557;-78
2024/01/04 14:42:23;;;;;;;0.80;0.50;;;;;;;;;;5035479;28;20064;-79
2024/01/04 14:44:49;;;;;;;1.55;0.50;;;;;;;;;;5021884;28;20028;-78